sensor_id;sensor_type;location;lat;lon;timestamp;temperature;humidity
24844;DHT22;12921;51.392;12.240;2022-09-12T00:00:28;12.20;99.90
24844;DHT22;12921;51.392;12.240;2022-09-12T00:02:57;12.10;99.90
24844;DHT22;12921;51.392;12.240;2022-09-12T00:05:23;12.00;99.90
24844;DHT22;12921;51.392;12.240;2022-09-12T00:07:49;12.00;99.90
24844;DHT22;12921;51.392;12.240;2022-09-12T00:10:15;12.00;99.90
24844;DHT22;12921;51.392;12.240;2022-09-12T00:12:41;11.90;99.90
24844;DHT22;12921;51.392;12.240;2022-09-12T00:15:07;11.90;99.90
24844;DHT22;12921;51.392;12.240;2022-09-12T00:17:34;12.00;99.90
24844;DHT22;12921;51.392;12.240;2022-09-12T00:20:00;12.00;99.90
24844;DHT22;12921;51.392;12.240;2022-09-12T00:22:26;12.10;99.90
24844;DHT22;12921;51.392;12.240;2022-09-12T00:24:52;12.20;99.90
24844;DHT22;12921;51.392;12.240;2022-09-12T00:27:17;12.30;99.90
24844;DHT22;12921;51.392;12.240;2022-09-12T00:29:43;12.40;99.90
24844;DHT22;12921;51.392;12.240;2022-09-12T00:32:09;12.50;99.90
24844;DHT22;12921;51.392;12.240;2022-09-12T00:34:35;12.50;99.90
24844;DHT22;12921;51.392;12.240;2022-09-12T00:37:02;12.60;99.90
24844;DHT22;12921;51.392;12.240;2022-09-12T00:39:28;12.60;99.90
24844;DHT22;12921;51.392;12.240;2022-09-12T00:41:53;12.60;99.90
24844;DHT22;12921;51.392;12.240;2022-09-12T00:46:49;12.70;99.90
24844;DHT22;12921;51.392;12.240;2022-09-12T00:49:22;12.70;99.90
24844;DHT22;12921;51.392;12.240;2022-09-12T00:51:53;12.70;99.90
24844;DHT22;12921;51.392;12.240;2022-09-12T00:54:23;12.60;99.90
24844;DHT22;12921;51.392;12.240;2022-09-12T00:56:51;12.60;99.90
24844;DHT22;12921;51.392;12.240;2022-09-12T00:59:24;12.50;99.90
24844;DHT22;12921;51.392;12.240;2022-09-12T01:01:51;12.50;99.90
24844;DHT22;12921;51.392;12.240;2022-09-12T01:04:19;12.40;99.90
24844;DHT22;12921;51.392;12.240;2022-09-12T01:06:47;12.30;99.90
24844;DHT22;12921;51.392;12.240;2022-09-12T01:09:16;12.30;99.90
24844;DHT22;12921;51.392;12.240;2022-09-12T01:11:43;12.20;99.90
24844;DHT22;12921;51.392;12.240;2022-09-12T01:14:11;12.20;99.90
24844;DHT22;12921;51.392;12.240;2022-09-12T01:16:38;12.20;99.90
24844;DHT22;12921;51.392;12.240;2022-09-12T01:19:19;12.20;99.90
24844;DHT22;12921;51.392;12.240;2022-09-12T01:24:45;12.30;99.90
24844;DHT22;12921;51.392;12.240;2022-09-12T01:27:46;12.30;99.90
24844;DHT22;12921;51.392;12.240;2022-09-12T01:41:54;12.50;99.90
24844;DHT22;12921;51.392;12.240;2022-09-12T01:44:44;12.50;99.90
24844;DHT22;12921;51.392;12.240;2022-09-12T01:52:58;12.40;99.90
24844;DHT22;12921;51.392;12.240;2022-09-12T01:55:47;12.40;99.90
24844;DHT22;12921;51.392;12.240;2022-09-12T01:58:21;12.40;99.90
24844;DHT22;12921;51.392;12.240;2022-09-12T02:00:59;12.30;99.90
24844;DHT22;12921;51.392;12.240;2022-09-12T02:03:30;12.30;99.90
24844;DHT22;12921;51.392;12.240;2022-09-12T02:06:06;12.30;99.90
24844;DHT22;12921;51.392;12.240;2022-09-12T02:08:39;12.20;99.90
24844;DHT22;12921;51.392;12.240;2022-09-12T02:11:08;12.30;99.90
24844;DHT22;12921;51.392;12.240;2022-09-12T02:13:42;12.20;99.90
24844;DHT22;12921;51.392;12.240;2022-09-12T02:16:11;12.20;99.90
24844;DHT22;12921;51.392;12.240;2022-09-12T02:18:44;12.20;99.90
24844;DHT22;12921;51.392;12.240;2022-09-12T02:21:12;12.10;99.90
24844;DHT22;12921;51.392;12.240;2022-09-12T02:23:42;12.10;99.90
24844;DHT22;12921;51.392;12.240;2022-09-12T02:26:20;12.00;99.90
24844;DHT22;12921;51.392;12.240;2022-09-12T02:28:48;12.00;99.90
24844;DHT22;12921;51.392;12.240;2022-09-12T02:39:08;11.80;99.90
24844;DHT22;12921;51.392;12.240;2022-09-12T02:41:34;11.70;99.90
24844;DHT22;12921;51.392;12.240;2022-09-12T02:44:00;11.60;99.90
24844;DHT22;12921;51.392;12.240;2022-09-12T02:46:30;11.60;99.90
24844;DHT22;12921;51.392;12.240;2022-09-12T02:48:57;11.50;99.90
24844;DHT22;12921;51.392;12.240;2022-09-12T02:51:23;11.40;99.90
24844;DHT22;12921;51.392;12.240;2022-09-12T02:53:50;11.30;99.90
24844;DHT22;12921;51.392;12.240;2022-09-12T02:56:22;11.30;99.90
24844;DHT22;12921;51.392;12.240;2022-09-12T02:58:49;11.20;99.90
24844;DHT22;12921;51.392;12.240;2022-09-12T03:18:25;10.70;99.90
24844;DHT22;12921;51.392;12.240;2022-09-12T03:21:20;10.70;99.90
24844;DHT22;12921;51.392;12.240;2022-09-12T03:26:26;10.60;99.90
24844;DHT22;12921;51.392;12.240;2022-09-12T03:28:54;10.50;99.90
24844;DHT22;12921;51.392;12.240;2022-09-12T03:31:21;10.50;99.90
24844;DHT22;12921;51.392;12.240;2022-09-12T03:33:46;10.50;99.90
24844;DHT22;12921;51.392;12.240;2022-09-12T03:36:16;10.50;99.90
24844;DHT22;12921;51.392;12.240;2022-09-12T03:38:43;10.50;99.90
24844;DHT22;12921;51.392;12.240;2022-09-12T03:41:09;10.40;99.90
24844;DHT22;12921;51.392;12.240;2022-09-12T03:43:35;10.40;99.90
24844;DHT22;12921;51.392;12.240;2022-09-12T03:46:00;10.40;99.90
24844;DHT22;12921;51.392;12.240;2022-09-12T03:48:26;10.40;99.90
24844;DHT22;12921;51.392;12.240;2022-09-12T03:50:52;10.30;99.90
24844;DHT22;12921;51.392;12.240;2022-09-12T03:53:17;10.30;99.90
24844;DHT22;12921;51.392;12.240;2022-09-12T03:55:43;10.20;99.90
24844;DHT22;12921;51.392;12.240;2022-09-12T03:58:08;10.20;99.90
24844;DHT22;12921;51.392;12.240;2022-09-12T04:00:34;10.20;99.90
24844;DHT22;12921;51.392;12.240;2022-09-12T04:03:00;10.20;99.90
24844;DHT22;12921;51.392;12.240;2022-09-12T04:05:25;10.10;99.90
24844;DHT22;12921;51.392;12.240;2022-09-12T04:07:51;10.20;99.90
24844;DHT22;12921;51.392;12.240;2022-09-12T04:10:17;10.20;99.90
24844;DHT22;12921;51.392;12.240;2022-09-12T04:12:43;10.20;99.90
24844;DHT22;12921;51.392;12.240;2022-09-12T04:15:09;10.30;99.90
24844;DHT22;12921;51.392;12.240;2022-09-12T04:17:35;10.30;99.90
24844;DHT22;12921;51.392;12.240;2022-09-12T04:20:00;10.20;99.90
24844;DHT22;12921;51.392;12.240;2022-09-12T04:22:26;10.20;99.90
24844;DHT22;12921;51.392;12.240;2022-09-12T04:24:52;10.20;99.90
24844;DHT22;12921;51.392;12.240;2022-09-12T04:27:18;10.20;99.90
24844;DHT22;12921;51.392;12.240;2022-09-12T04:29:43;10.20;99.90
24844;DHT22;12921;51.392;12.240;2022-09-12T04:32:09;10.20;99.90
24844;DHT22;12921;51.392;12.240;2022-09-12T04:34:34;10.30;99.90
24844;DHT22;12921;51.392;12.240;2022-09-12T04:37:00;10.30;99.90
24844;DHT22;12921;51.392;12.240;2022-09-12T04:39:25;10.20;99.90
24844;DHT22;12921;51.392;12.240;2022-09-12T04:41:51;10.30;99.90
24844;DHT22;12921;51.392;12.240;2022-09-12T04:44:17;10.20;99.90
24844;DHT22;12921;51.392;12.240;2022-09-12T04:46:45;10.30;99.90
24844;DHT22;12921;51.392;12.240;2022-09-12T04:49:12;10.30;99.90
24844;DHT22;12921;51.392;12.240;2022-09-12T04:51:40;10.30;99.90
24844;DHT22;12921;51.392;12.240;2022-09-12T04:54:09;10.20;99.90
24844;DHT22;12921;51.392;12.240;2022-09-12T04:56:40;10.30;99.90
24844;DHT22;12921;51.392;12.240;2022-09-12T04:59:06;10.30;99.90
24844;DHT22;12921;51.392;12.240;2022-09-12T05:01:33;10.40;99.90
24844;DHT22;12921;51.392;12.240;2022-09-12T05:03:59;10.40;99.90
24844;DHT22;12921;51.392;12.240;2022-09-12T05:06:27;10.40;99.90
24844;DHT22;12921;51.392;12.240;2022-09-12T05:08:55;10.40;99.90
24844;DHT22;12921;51.392;12.240;2022-09-12T05:11:25;10.40;99.90
24844;DHT22;12921;51.392;12.240;2022-09-12T05:13:51;10.50;99.90
24844;DHT22;12921;51.392;12.240;2022-09-12T05:16:17;10.50;99.90
24844;DHT22;12921;51.392;12.240;2022-09-12T05:18:44;10.50;99.90
24844;DHT22;12921;51.392;12.240;2022-09-12T05:21:11;10.50;99.90
24844;DHT22;12921;51.392;12.240;2022-09-12T05:23:37;10.60;99.90
24844;DHT22;12921;51.392;12.240;2022-09-12T05:26:05;10.60;99.90
24844;DHT22;12921;51.392;12.240;2022-09-12T05:28:35;10.70;99.90
24844;DHT22;12921;51.392;12.240;2022-09-12T05:31:08;10.80;99.90
24844;DHT22;12921;51.392;12.240;2022-09-12T05:33:36;11.00;99.90
24844;DHT22;12921;51.392;12.240;2022-09-12T05:36:04;11.40;99.90
24844;DHT22;12921;51.392;12.240;2022-09-12T05:38:32;11.90;99.90
24844;DHT22;12921;51.392;12.240;2022-09-12T05:41:12;12.50;99.90
24844;DHT22;12921;51.392;12.240;2022-09-12T05:43:40;13.20;99.90
24844;DHT22;12921;51.392;12.240;2022-09-12T05:46:14;13.80;99.90
24844;DHT22;12921;51.392;12.240;2022-09-12T05:48:41;14.40;99.90
24844;DHT22;12921;51.392;12.240;2022-09-12T05:51:15;14.90;99.90
24844;DHT22;12921;51.392;12.240;2022-09-12T05:53:47;15.30;99.90
24844;DHT22;12921;51.392;12.240;2022-09-12T05:56:15;15.30;99.90
24844;DHT22;12921;51.392;12.240;2022-09-12T05:58:47;15.20;99.90
24844;DHT22;12921;51.392;12.240;2022-09-12T06:01:17;15.00;99.90
24844;DHT22;12921;51.392;12.240;2022-09-12T06:03:52;14.90;99.90
24844;DHT22;12921;51.392;12.240;2022-09-12T06:06:20;14.80;99.90
24844;DHT22;12921;51.392;12.240;2022-09-12T06:08:48;14.70;99.90
24844;DHT22;12921;51.392;12.240;2022-09-12T06:11:18;14.70;99.90
24844;DHT22;12921;51.392;12.240;2022-09-12T06:13:44;14.70;99.90
24844;DHT22;12921;51.392;12.240;2022-09-12T06:16:18;14.80;99.90
24844;DHT22;12921;51.392;12.240;2022-09-12T06:18:52;14.80;99.90
24844;DHT22;12921;51.392;12.240;2022-09-12T06:21:19;14.80;99.90
24844;DHT22;12921;51.392;12.240;2022-09-12T06:23:45;14.80;99.90
24844;DHT22;12921;51.392;12.240;2022-09-12T06:26:13;14.90;99.90
24844;DHT22;12921;51.392;12.240;2022-09-12T06:28:41;15.00;99.90
24844;DHT22;12921;51.392;12.240;2022-09-12T06:31:18;15.10;99.90
24844;DHT22;12921;51.392;12.240;2022-09-12T06:33:46;15.20;99.90
24844;DHT22;12921;51.392;12.240;2022-09-12T06:36:17;15.50;99.90
24844;DHT22;12921;51.392;12.240;2022-09-12T06:38:43;15.70;99.90
24844;DHT22;12921;51.392;12.240;2022-09-12T06:41:14;16.00;99.90
24844;DHT22;12921;51.392;12.240;2022-09-12T06:43:40;16.20;99.90
24844;DHT22;12921;51.392;12.240;2022-09-12T06:46:07;16.60;99.90
24844;DHT22;12921;51.392;12.240;2022-09-12T06:48:32;16.70;99.90
24844;DHT22;12921;51.392;12.240;2022-09-12T06:53:26;16.80;99.90
24844;DHT22;12921;51.392;12.240;2022-09-12T06:55:59;16.80;99.90
24844;DHT22;12921;51.392;12.240;2022-09-12T06:58:25;16.70;99.90
24844;DHT22;12921;51.392;12.240;2022-09-12T07:00:51;16.70;99.90
24844;DHT22;12921;51.392;12.240;2022-09-12T07:03:17;16.80;99.90
24844;DHT22;12921;51.392;12.240;2022-09-12T07:05:44;16.80;99.90
24844;DHT22;12921;51.392;12.240;2022-09-12T07:08:10;17.00;99.90
24844;DHT22;12921;51.392;12.240;2022-09-12T07:10:36;17.10;99.90
24844;DHT22;12921;51.392;12.240;2022-09-12T07:13:01;17.20;99.90
24844;DHT22;12921;51.392;12.240;2022-09-12T07:15:27;17.30;99.90
24844;DHT22;12921;51.392;12.240;2022-09-12T07:17:53;17.30;99.90
24844;DHT22;12921;51.392;12.240;2022-09-12T07:20:18;17.30;99.90
24844;DHT22;12921;51.392;12.240;2022-09-12T07:22:44;17.30;99.90
24844;DHT22;12921;51.392;12.240;2022-09-12T07:25:10;17.40;99.90
24844;DHT22;12921;51.392;12.240;2022-09-12T07:27:36;17.40;99.90
24844;DHT22;12921;51.392;12.240;2022-09-12T07:30:04;17.40;99.90
24844;DHT22;12921;51.392;12.240;2022-09-12T07:32:32;17.50;99.90
24844;DHT22;12921;51.392;12.240;2022-09-12T07:34:58;17.50;99.90
24844;DHT22;12921;51.392;12.240;2022-09-12T07:37:23;17.70;99.90
24844;DHT22;12921;51.392;12.240;2022-09-12T07:39:49;17.80;99.90
24844;DHT22;12921;51.392;12.240;2022-09-12T07:42:14;17.90;99.90
24844;DHT22;12921;51.392;12.240;2022-09-12T07:44:41;18.10;99.90
24844;DHT22;12921;51.392;12.240;2022-09-12T07:47:07;18.50;99.90
24844;DHT22;12921;51.392;12.240;2022-09-12T07:49:33;18.90;99.90
24844;DHT22;12921;51.392;12.240;2022-09-12T07:51:58;19.30;99.90
24844;DHT22;12921;51.392;12.240;2022-09-12T07:54:24;19.80;99.90
24844;DHT22;12921;51.392;12.240;2022-09-12T07:56:49;20.10;99.90
24844;DHT22;12921;51.392;12.240;2022-09-12T07:59:16;20.40;99.90
24844;DHT22;12921;51.392;12.240;2022-09-12T08:01:41;20.70;99.90
24844;DHT22;12921;51.392;12.240;2022-09-12T08:04:07;20.90;99.90
24844;DHT22;12921;51.392;12.240;2022-09-12T08:06:33;20.90;99.90
24844;DHT22;12921;51.392;12.240;2022-09-12T08:09:00;20.80;99.90
24844;DHT22;12921;51.392;12.240;2022-09-12T08:11:27;21.10;99.90
24844;DHT22;12921;51.392;12.240;2022-09-12T08:13:54;21.30;99.90
24844;DHT22;12921;51.392;12.240;2022-09-12T08:16:24;20.90;99.90
24844;DHT22;12921;51.392;12.240;2022-09-12T08:18:50;20.50;99.90
24844;DHT22;12921;51.392;12.240;2022-09-12T08:21:17;20.80;99.90
24844;DHT22;12921;51.392;12.240;2022-09-12T08:23:43;21.10;99.90
24844;DHT22;12921;51.392;12.240;2022-09-12T08:26:10;21.40;99.90
24844;DHT22;12921;51.392;12.240;2022-09-12T08:28:37;21.50;99.90
24844;DHT22;12921;51.392;12.240;2022-09-12T08:31:11;21.80;99.90
24844;DHT22;12921;51.392;12.240;2022-09-12T08:33:37;22.20;99.90
24844;DHT22;12921;51.392;12.240;2022-09-12T08:36:10;22.50;99.90
24844;DHT22;12921;51.392;12.240;2022-09-12T08:38:39;22.70;99.90
24844;DHT22;12921;51.392;12.240;2022-09-12T08:43:55;23.00;99.90
24844;DHT22;12921;51.392;12.240;2022-09-12T08:49:11;23.80;99.90
24844;DHT22;12921;51.392;12.240;2022-09-12T08:51:38;24.20;99.90
24844;DHT22;12921;51.392;12.240;2022-09-12T08:54:08;24.60;99.90
24844;DHT22;12921;51.392;12.240;2022-09-12T08:56:38;24.80;99.90
24844;DHT22;12921;51.392;12.240;2022-09-12T08:59:04;24.90;99.90
24844;DHT22;12921;51.392;12.240;2022-09-12T09:01:39;24.70;99.90
24844;DHT22;12921;51.392;12.240;2022-09-12T09:04:39;24.90;99.90
24844;DHT22;12921;51.392;12.240;2022-09-12T09:13:06;24.60;99.90
24844;DHT22;12921;51.392;12.240;2022-09-12T09:16:13;24.30;99.90
24844;DHT22;12921;51.392;12.240;2022-09-12T09:18:37;24.40;99.90
24844;DHT22;12921;51.392;12.240;2022-09-12T09:21:24;24.50;99.90
24844;DHT22;12921;51.392;12.240;2022-09-12T09:23:56;24.80;99.90
24844;DHT22;12921;51.392;12.240;2022-09-12T09:26:29;25.20;99.90
24844;DHT22;12921;51.392;12.240;2022-09-12T09:31:32;26.00;99.90
24844;DHT22;12921;51.392;12.240;2022-09-12T09:33:59;26.40;99.90
24844;DHT22;12921;51.392;12.240;2022-09-12T09:44:21;26.00;99.90
24844;DHT22;12921;51.392;12.240;2022-09-12T09:46:53;26.30;99.90
24844;DHT22;12921;51.392;12.240;2022-09-12T09:49:20;26.70;99.90
24844;DHT22;12921;51.392;12.240;2022-09-12T09:51:46;27.00;99.90
24844;DHT22;12921;51.392;12.240;2022-09-12T09:54:25;27.40;99.90
24844;DHT22;12921;51.392;12.240;2022-09-12T09:56:53;27.80;99.90
24844;DHT22;12921;51.392;12.240;2022-09-12T09:59:25;28.20;99.90
24844;DHT22;12921;51.392;12.240;2022-09-12T10:02:19;28.40;99.90
24844;DHT22;12921;51.392;12.240;2022-09-12T10:04:56;28.60;99.90
24844;DHT22;12921;51.392;12.240;2022-09-12T10:07:23;29.00;99.90
24844;DHT22;12921;51.392;12.240;2022-09-12T10:10:06;29.30;99.90
24844;DHT22;12921;51.392;12.240;2022-09-12T10:12:32;29.50;99.90
24844;DHT22;12921;51.392;12.240;2022-09-12T10:15:00;29.30;99.60
24844;DHT22;12921;51.392;12.240;2022-09-12T10:17:43;28.80;99.90
24844;DHT22;12921;51.392;12.240;2022-09-12T10:20:38;27.40;99.90
24844;DHT22;12921;51.392;12.240;2022-09-12T10:25:53;27.20;99.90
24844;DHT22;12921;51.392;12.240;2022-09-12T10:28:27;27.30;99.90
24844;DHT22;12921;51.392;12.240;2022-09-12T10:30:55;27.50;99.90
24844;DHT22;12921;51.392;12.240;2022-09-12T10:33:23;27.70;99.90
24844;DHT22;12921;51.392;12.240;2022-09-12T10:35:52;27.70;99.90
24844;DHT22;12921;51.392;12.240;2022-09-12T10:38:29;27.60;99.90
24844;DHT22;12921;51.392;12.240;2022-09-12T10:41:04;27.60;99.90
24844;DHT22;12921;51.392;12.240;2022-09-12T10:43:34;27.60;99.90
24844;DHT22;12921;51.392;12.240;2022-09-12T10:48:46;26.60;99.90
24844;DHT22;12921;51.392;12.240;2022-09-12T10:54:00;26.70;99.90
24844;DHT22;12921;51.392;12.240;2022-09-12T10:56:32;26.60;99.90
24844;DHT22;12921;51.392;12.240;2022-09-12T11:07:42;26.30;99.90
24844;DHT22;12921;51.392;12.240;2022-09-12T11:37:48;27.80;92.60
24844;DHT22;12921;51.392;12.240;2022-09-12T11:40:34;27.40;93.50
24844;DHT22;12921;51.392;12.240;2022-09-12T11:46:14;26.70;93.70
24844;DHT22;12921;51.392;12.240;2022-09-12T11:51:17;25.70;95.40
24844;DHT22;12921;51.392;12.240;2022-09-12T11:53:46;25.60;95.50
24844;DHT22;12921;51.392;12.240;2022-09-12T11:56:16;25.80;95.60
24844;DHT22;12921;51.392;12.240;2022-09-12T11:58:48;26.10;95.10
24844;DHT22;12921;51.392;12.240;2022-09-12T12:01:34;25.60;95.70
24844;DHT22;12921;51.392;12.240;2022-09-12T12:04:09;25.00;96.70
24844;DHT22;12921;51.392;12.240;2022-09-12T12:06:55;25.30;97.10
24844;DHT22;12921;51.392;12.240;2022-09-12T12:09:26;25.60;96.80
24844;DHT22;12921;51.392;12.240;2022-09-12T12:11:54;25.90;96.80
24844;DHT22;12921;51.392;12.240;2022-09-12T12:14:45;26.30;96.60
24844;DHT22;12921;51.392;12.240;2022-09-12T12:17:22;26.60;95.40
24844;DHT22;12921;51.392;12.240;2022-09-12T12:20:00;27.00;94.50
24844;DHT22;12921;51.392;12.240;2022-09-12T12:22:27;27.30;93.90
24844;DHT22;12921;51.392;12.240;2022-09-12T12:25:14;27.50;94.20
24844;DHT22;12921;51.392;12.240;2022-09-12T12:38:02;27.80;92.00
24844;DHT22;12921;51.392;12.240;2022-09-12T12:40:29;27.40;93.20
24844;DHT22;12921;51.392;12.240;2022-09-12T12:42:56;27.40;94.00
24844;DHT22;12921;51.392;12.240;2022-09-12T12:47:59;27.50;93.00
24844;DHT22;12921;51.392;12.240;2022-09-12T12:50:29;27.60;92.90
24844;DHT22;12921;51.392;12.240;2022-09-12T12:52:59;27.80;93.00
24844;DHT22;12921;51.392;12.240;2022-09-12T13:01:10;28.00;91.40
24844;DHT22;12921;51.392;12.240;2022-09-12T13:04:11;27.70;91.10
24844;DHT22;12921;51.392;12.240;2022-09-12T13:06:36;27.50;91.70
24844;DHT22;12921;51.392;12.240;2022-09-12T13:09:25;27.00;92.40
24844;DHT22;12921;51.392;12.240;2022-09-12T13:12:08;26.80;92.90
24844;DHT22;12921;51.392;12.240;2022-09-12T13:22:44;26.70;92.90
24844;DHT22;12921;51.392;12.240;2022-09-12T13:25:33;26.70;93.30
24844;DHT22;12921;51.392;12.240;2022-09-12T13:28:15;26.10;92.80
24844;DHT22;12921;51.392;12.240;2022-09-12T13:30:54;25.90;93.80
24844;DHT22;12921;51.392;12.240;2022-09-12T13:36:06;25.10;93.70
24844;DHT22;12921;51.392;12.240;2022-09-12T13:43:56;25.20;94.50
24844;DHT22;12921;51.392;12.240;2022-09-12T13:46:27;25.50;94.40
24844;DHT22;12921;51.392;12.240;2022-09-12T13:48:56;25.80;92.80
24844;DHT22;12921;51.392;12.240;2022-09-12T13:51:29;26.00;93.60
24844;DHT22;12921;51.392;12.240;2022-09-12T13:53:58;26.20;93.20
24844;DHT22;12921;51.392;12.240;2022-09-12T13:56:26;26.20;92.80
24844;DHT22;12921;51.392;12.240;2022-09-12T13:58:53;26.00;93.30
24844;DHT22;12921;51.392;12.240;2022-09-12T14:01:20;25.50;93.50
24844;DHT22;12921;51.392;12.240;2022-09-12T14:03:52;25.40;94.30
24844;DHT22;12921;51.392;12.240;2022-09-12T14:06:48;25.20;94.80
24844;DHT22;12921;51.392;12.240;2022-09-12T14:09:55;25.20;95.90
24844;DHT22;12921;51.392;12.240;2022-09-12T14:12:25;25.30;94.50
24844;DHT22;12921;51.392;12.240;2022-09-12T14:14:52;25.30;95.30
24844;DHT22;12921;51.392;12.240;2022-09-12T14:17:23;25.30;94.90
24844;DHT22;12921;51.392;12.240;2022-09-12T14:19:50;25.30;94.70
24844;DHT22;12921;51.392;12.240;2022-09-12T14:22:17;25.40;94.20
24844;DHT22;12921;51.392;12.240;2022-09-12T14:24:49;25.40;94.70
24844;DHT22;12921;51.392;12.240;2022-09-12T14:27:22;25.30;94.30
24844;DHT22;12921;51.392;12.240;2022-09-12T14:29:53;25.00;94.40
24844;DHT22;12921;51.392;12.240;2022-09-12T14:32:22;24.90;95.00
24844;DHT22;12921;51.392;12.240;2022-09-12T14:37:36;24.50;96.00
24844;DHT22;12921;51.392;12.240;2022-09-12T14:40:03;24.40;95.70
24844;DHT22;12921;51.392;12.240;2022-09-12T14:42:31;24.40;95.60
24844;DHT22;12921;51.392;12.240;2022-09-12T14:47:27;23.70;96.70
24844;DHT22;12921;51.392;12.240;2022-09-12T14:49:53;23.60;96.90
24844;DHT22;12921;51.392;12.240;2022-09-12T14:52:26;23.70;97.30
24844;DHT22;12921;51.392;12.240;2022-09-12T14:55:26;23.80;96.80
24844;DHT22;12921;51.392;12.240;2022-09-12T14:58:25;23.60;97.20
24844;DHT22;12921;51.392;12.240;2022-09-12T15:01:19;23.40;97.80
24844;DHT22;12921;51.392;12.240;2022-09-12T15:06:37;23.50;97.80
24844;DHT22;12921;51.392;12.240;2022-09-12T15:09:11;23.40;98.00
24844;DHT22;12921;51.392;12.240;2022-09-12T15:11:37;23.20;98.10
24844;DHT22;12921;51.392;12.240;2022-09-12T15:14:11;23.10;98.80
24844;DHT22;12921;51.392;12.240;2022-09-12T15:16:37;23.10;99.90
24844;DHT22;12921;51.392;12.240;2022-09-12T15:19:03;23.20;99.00
24844;DHT22;12921;51.392;12.240;2022-09-12T15:21:29;23.20;99.20
24844;DHT22;12921;51.392;12.240;2022-09-12T15:23:55;23.00;98.80
24844;DHT22;12921;51.392;12.240;2022-09-12T15:26:23;22.90;99.70
24844;DHT22;12921;51.392;12.240;2022-09-12T15:28:51;22.70;99.80
24844;DHT22;12921;51.392;12.240;2022-09-12T15:33:50;22.50;99.90
24844;DHT22;12921;51.392;12.240;2022-09-12T15:36:18;22.50;99.90
24844;DHT22;12921;51.392;12.240;2022-09-12T15:38:46;22.40;99.90
24844;DHT22;12921;51.392;12.240;2022-09-12T15:41:18;22.00;99.90
24844;DHT22;12921;51.392;12.240;2022-09-12T15:43:44;21.80;99.90
24844;DHT22;12921;51.392;12.240;2022-09-12T15:46:11;21.70;99.90
24844;DHT22;12921;51.392;12.240;2022-09-12T15:48:38;21.60;99.90
24844;DHT22;12921;51.392;12.240;2022-09-12T15:51:07;21.50;99.90
24844;DHT22;12921;51.392;12.240;2022-09-12T15:53:34;21.50;99.90
24844;DHT22;12921;51.392;12.240;2022-09-12T15:55:59;21.50;99.90
24844;DHT22;12921;51.392;12.240;2022-09-12T15:58:25;21.50;99.90
24844;DHT22;12921;51.392;12.240;2022-09-12T16:00:50;21.30;99.90
24844;DHT22;12921;51.392;12.240;2022-09-12T16:03:22;21.20;99.90
24844;DHT22;12921;51.392;12.240;2022-09-12T16:05:49;21.20;99.90
24844;DHT22;12921;51.392;12.240;2022-09-12T16:08:19;21.20;99.90
24844;DHT22;12921;51.392;12.240;2022-09-12T16:10:46;21.30;99.90
24844;DHT22;12921;51.392;12.240;2022-09-12T16:13:13;21.40;99.90
24844;DHT22;12921;51.392;12.240;2022-09-12T16:15:38;21.40;99.90
24844;DHT22;12921;51.392;12.240;2022-09-12T16:18:04;21.40;99.90
24844;DHT22;12921;51.392;12.240;2022-09-12T16:20:29;21.30;99.90
24844;DHT22;12921;51.392;12.240;2022-09-12T16:22:55;21.30;99.90
24844;DHT22;12921;51.392;12.240;2022-09-12T16:25:21;21.30;99.90
24844;DHT22;12921;51.392;12.240;2022-09-12T16:27:46;21.30;99.90
24844;DHT22;12921;51.392;12.240;2022-09-12T16:30:12;21.30;99.90
24844;DHT22;12921;51.392;12.240;2022-09-12T16:32:38;21.20;99.90
24844;DHT22;12921;51.392;12.240;2022-09-12T16:35:04;21.20;99.90
24844;DHT22;12921;51.392;12.240;2022-09-12T16:37:30;21.00;99.90
24844;DHT22;12921;51.392;12.240;2022-09-12T16:39:56;21.00;99.90
24844;DHT22;12921;51.392;12.240;2022-09-12T16:42:22;20.90;99.90
24844;DHT22;12921;51.392;12.240;2022-09-12T16:44:48;20.90;99.90
24844;DHT22;12921;51.392;12.240;2022-09-12T16:47:14;20.80;99.90
24844;DHT22;12921;51.392;12.240;2022-09-12T16:49:39;20.80;99.90
24844;DHT22;12921;51.392;12.240;2022-09-12T16:52:05;20.80;99.90
24844;DHT22;12921;51.392;12.240;2022-09-12T16:54:31;20.70;99.90
24844;DHT22;12921;51.392;12.240;2022-09-12T16:56:57;20.60;99.90
24844;DHT22;12921;51.392;12.240;2022-09-12T16:59:22;20.60;99.90
24844;DHT22;12921;51.392;12.240;2022-09-12T17:01:48;20.50;99.90
24844;DHT22;12921;51.392;12.240;2022-09-12T17:04:13;20.40;99.90
24844;DHT22;12921;51.392;12.240;2022-09-12T17:06:39;20.30;99.90
24844;DHT22;12921;51.392;12.240;2022-09-12T17:09:06;20.30;99.90
24844;DHT22;12921;51.392;12.240;2022-09-12T17:11:36;20.20;99.90
24844;DHT22;12921;51.392;12.240;2022-09-12T17:14:04;20.10;99.90
24844;DHT22;12921;51.392;12.240;2022-09-12T17:16:34;20.00;99.90
24844;DHT22;12921;51.392;12.240;2022-09-12T17:19:00;19.90;99.90
24844;DHT22;12921;51.392;12.240;2022-09-12T17:21:26;19.80;99.90
24844;DHT22;12921;51.392;12.240;2022-09-12T17:23:51;19.70;99.90
24844;DHT22;12921;51.392;12.240;2022-09-12T17:26:17;19.60;99.90
24844;DHT22;12921;51.392;12.240;2022-09-12T17:28:43;19.50;99.90
24844;DHT22;12921;51.392;12.240;2022-09-12T17:31:11;19.30;99.90
24844;DHT22;12921;51.392;12.240;2022-09-12T17:33:37;19.20;99.90
24844;DHT22;12921;51.392;12.240;2022-09-12T17:36:06;19.10;99.90
24844;DHT22;12921;51.392;12.240;2022-09-12T17:38:33;18.90;99.90
24844;DHT22;12921;51.392;12.240;2022-09-12T17:41:11;18.80;99.90
24844;DHT22;12921;51.392;12.240;2022-09-12T17:43:40;18.70;99.90
24844;DHT22;12921;51.392;12.240;2022-09-12T17:46:06;18.60;99.90
24844;DHT22;12921;51.392;12.240;2022-09-12T17:48:32;18.50;99.90
24844;DHT22;12921;51.392;12.240;2022-09-12T17:51:04;18.40;99.90
24844;DHT22;12921;51.392;12.240;2022-09-12T17:53:30;18.30;99.90
24844;DHT22;12921;51.392;12.240;2022-09-12T17:56:00;18.20;99.90
24844;DHT22;12921;51.392;12.240;2022-09-12T17:58:27;18.10;99.90
24844;DHT22;12921;51.392;12.240;2022-09-12T18:01:17;18.00;99.90
24844;DHT22;12921;51.392;12.240;2022-09-12T18:04:01;17.90;99.90
24844;DHT22;12921;51.392;12.240;2022-09-12T18:06:29;17.70;99.90
24844;DHT22;12921;51.392;12.240;2022-09-12T18:08:57;17.70;99.90
24844;DHT22;12921;51.392;12.240;2022-09-12T18:11:23;17.60;99.90
24844;DHT22;12921;51.392;12.240;2022-09-12T18:13:48;17.50;99.90
24844;DHT22;12921;51.392;12.240;2022-09-12T18:16:14;17.40;99.90
24844;DHT22;12921;51.392;12.240;2022-09-12T18:18:40;17.20;99.90
24844;DHT22;12921;51.392;12.240;2022-09-12T18:21:06;17.10;99.90